Scf Prime — A8YG7 — position and weather

sailwx.info

Track history (hours):
 
Tides and Currents Weather Stations Pressure Air Temp Water Temp Dewpoint Dewpoint Depression Visibility Wind Speed Wind Dir Waves Ship Positions

Scf Prime

Last reported at 2018-Feb-19 06:33 UTC. Time now 2018-Feb-20 01:53 UTC.
Position N 48°53' W 006°32'.

Length 228 m; draft 12.3 m.

Type: Ship. MMSI: 636015050.

Date/timePositionNaut miles runAvg speedWind from/ knotsBaromVisibWave heightAir tempDewpointWater temp
2018-Feb-19 06:33N 48°53' W 006°32'810.6
2018-Feb-19 05:47N 48°57' W 006°21'310.5
2018-Feb-19 05:30N 48°59' W 006°17'510.3
2018-Feb-19 05:00N 49°02' W 006°11'5311.6
2018-Feb-19 00:24N 49°29' W 005°00'37 9.1
2018-Feb-18 20:20N 49°42' W 004°07'1210.6
2018-Feb-18 19:10N 49°46' W 003°49'210.8
2018-Feb-18 19:00N 49°47' W 003°46'1011.1
2018-Feb-18 18:04N 49°50' W 003°31'211.6
2018-Feb-18 17:53N 49°51' W 003°28'512.0
2018-Feb-18 17:29N 49°53' W 003°21'612.7
2018-Feb-18 17:00N 49°55' W 003°12'713.6
2018-Feb-18 16:30N 49°57' W 003°02'714.4
2018-Feb-18 16:00N 49°60' W 002°52'815.1
2018-Feb-18 15:30N 50°02' W 002°41'1015.6
2018-Feb-18 14:51N 50°04' W 002°25'1215.5
2018-Feb-18 14:05N 50°08' W 002°07'215.0
2018-Feb-18 13:55N 50°08' W 002°04'614.6
2018-Feb-18 13:30N 50°10' W 001°55'713.7
2018-Feb-18 13:00N 50°12' W 001°44'612.7
2018-Feb-18 12:30N 50°14' W 001°35'611.8
2018-Feb-18 12:00N 50°15' W 001°26'510.8
2018-Feb-18 11:30N 50°17' W 001°18'510.1
2018-Feb-18 10:59N 50°18' W 001°10'31 9.8
2018-Feb-18 07:49N 50°27' W 000°23'411.8
2018-Feb-18 07:30N 50°28' W 000°17'612.7
2018-Feb-18 07:00N 50°29' W 000°08'713.3
2018-Feb-18 06:31N 50°31' E 000°02'713.9
2018-Feb-18 06:00N 50°33' E 000°13'714.0
2018-Feb-18 05:30N 50°35' E 000°23'714.1
2018-Feb-18 05:00N 50°37' E 000°34'713.6
2018-Feb-18 04:31N 50°40' E 000°43'713.2
2018-Feb-18 04:00N 50°44' E 000°52'612.6
2018-Feb-18 03:30N 50°47' E 001°00'612.0
2018-Feb-18 03:00N 50°51' E 001°08'611.4
2018-Feb-18 02:30N 50°54' E 001°16'510.2
2018-Feb-18 02:00N 50°58' E 001°22'510.0
2018-Feb-18 01:31N 51°01' E 001°26'5 9.6
2018-Feb-18 01:01N 51°05' E 001°31'510.4
2018-Feb-18 00:31N 51°09' E 001°37'611.3
2018-Feb-18 00:00N 51°12' E 001°44'612.0
2018-Feb-17 23:31N 51°17' E 001°49'713.6
2018-Feb-17 23:00N 51°23' E 001°56'714.6
2018-Feb-17 22:31N 51°29' E 002°02'714.6
2018-Feb-17 22:00N 51°34' E 002°10'714.8
2018-Feb-17 21:30N 51°40' E 002°18'714.8
2018-Feb-17 21:00N 51°45' E 002°26'714.5
2018-Feb-17 20:30N 51°51' E 002°34'714.0
2018-Feb-17 20:00N 51°56' E 002°42'1611.9
2018-Feb-17 18:42N 52°04' E 003°03'312.6
2018-Feb-17 18:30N 52°03' E 003°07'612.8
2018-Feb-17 18:00N 52°03' E 003°18'812.5
2018-Feb-17 17:23N 52°03' E 003°30'512.2
2018-Feb-17 16:59N 52°04' E 003°38'612.0
2018-Feb-17 16:30N 52°03' E 003°48'5 9.8
2018-Feb-17 16:00N 52°02' E 003°55'5 9.8
2018-Feb-17 15:30N 51°60' E 004°02'510.0
2018-Feb-17 15:00N 51°57' E 004°09'2 4.7
2018-Feb-17 14:30N 51°56' E 004°12'0 0.4
2018-Feb-17 13:59N 51°56' E 004°12'0 0.0
2018-Feb-17 13:29N 51°56' E 004°12'0 0.0
2018-Feb-17 12:59N 51°56' E 004°12'0 0.0
2018-Feb-17 12:29N 51°56' E 004°12'0 0.0
2018-Feb-17 11:59N 51°56' E 004°12'0 0.0
2018-Feb-17 11:29N 51°56' E 004°12'0 0.0
2018-Feb-17 10:59N 51°56' E 004°12'0 0.0
2018-Feb-17 10:29N 51°56' E 004°12'0 0.0
2018-Feb-17 09:59N 51°56' E 004°12'0 0.0
2018-Feb-17 09:29N 51°56' E 004°12'0 0.0
2018-Feb-17 08:59N 51°56' E 004°12'0 0.0
2018-Feb-17 08:29N 51°56' E 004°12'0 0.0
2018-Feb-17 07:59N 51°56' E 004°12'0 0.0
2018-Feb-17 07:29N 51°56' E 004°12'0 0.0
2018-Feb-17 06:59N 51°56' E 004°12'0 0.0
2018-Feb-17 06:29N 51°56' E 004°12'0 0.0
2018-Feb-17 05:59N 51°56' E 004°12'0 0.0
2018-Feb-17 05:29N 51°56' E 004°12'0 0.0
2018-Feb-17 04:56N 51°56' E 004°12'0 0.0
2018-Feb-17 04:29N 51°56' E 004°12'0 0.0
2018-Feb-17 03:59N 51°56' E 004°12'0 0.0
2018-Feb-17 03:29N 51°56' E 004°12'0 0.0
2018-Feb-17 02:59N 51°56' E 004°12'0 0.0
2018-Feb-17 02:29N 51°56' E 004°12'0 0.0
2018-Feb-17 01:59N 51°56' E 004°12'0 0.0
2018-Feb-17 01:29N 51°56' E 004°12'0 0.0
2018-Feb-17 00:59N 51°56' E 004°12'0 0.0
2018-Feb-17 00:29N 51°56' E 004°12'0 0.0
2018-Feb-16 23:59N 51°56' E 004°12'0 0.0
2018-Feb-16 23:29N 51°56' E 004°12'0 0.0
2018-Feb-16 22:59N 51°56' E 004°12'0 0.0
2018-Feb-16 22:29N 51°56' E 004°12'0 0.0
2018-Feb-16 21:59N 51°56' E 004°12'0 0.0
2018-Feb-16 21:29N 51°56' E 004°12'0 0.0
2018-Feb-16 20:59N 51°56' E 004°12'0 0.0
2018-Feb-16 20:29N 51°56' E 004°12'0 0.0
2018-Feb-16 19:59N 51°56' E 004°12'0 0.0
2018-Feb-16 19:29N 51°56' E 004°12'0 0.0
2018-Feb-16 18:59N 51°56' E 004°12'0 0.0
2018-Feb-16 18:29N 51°56' E 004°12'0 0.0
2018-Feb-16 17:59N 51°56' E 004°12'0 0.0
2018-Feb-16 17:29N 51°56' E 004°12'0 0.0
2018-Feb-16 16:59N 51°56' E 004°12'0 0.0
2018-Feb-16 16:29N 51°56' E 004°12'0 0.0
2018-Feb-16 15:59N 51°56' E 004°12'0 0.0
2018-Feb-16 15:29N 51°56' E 004°12'0 0.0
2018-Feb-16 14:59N 51°56' E 004°12'0 0.0
2018-Feb-16 14:29N 51°56' E 004°12'0 0.0
2018-Feb-16 13:59N 51°56' E 004°12'0 0.0
2018-Feb-16 13:29N 51°56' E 004°12'0 0.0
2018-Feb-16 12:59N 51°56' E 004°12'0 0.0
2018-Feb-16 12:29N 51°56' E 004°12'0 0.0
2018-Feb-16 11:59N 51°56' E 004°12'0 0.0
2018-Feb-16 11:29N 51°56' E 004°12'0 0.0
2018-Feb-16 10:59N 51°56' E 004°12'0 0.0
2018-Feb-16 10:29N 51°56' E 004°12'0 0.0
2018-Feb-16 09:59N 51°56' E 004°12'0 0.0
2018-Feb-16 09:29N 51°56' E 004°12'0 0.0
2018-Feb-16 08:59N 51°56' E 004°12'0 0.0
2018-Feb-16 08:29N 51°56' E 004°12'0 0.0
2018-Feb-16 07:59N 51°56' E 004°12'0 0.0
2018-Feb-16 07:29N 51°56' E 004°12'0 0.0
2018-Feb-16 06:59N 51°56' E 004°12'0 0.0
2018-Feb-16 06:29N 51°56' E 004°12'0 0.0
2018-Feb-16 05:59N 51°56' E 004°12'0 0.0
2018-Feb-16 05:29N 51°56' E 004°12'0 0.0
2018-Feb-16 04:59N 51°56' E 004°12'0 0.0
2018-Feb-16 04:29N 51°56' E 004°12'0 0.0
2018-Feb-16 03:59N 51°56' E 004°12'0 0.0
2018-Feb-16 03:29N 51°56' E 004°12'0 0.0
2018-Feb-16 02:59N 51°56' E 004°12'0 0.0
2018-Feb-16 02:29N 51°56' E 004°12'0 0.0
2018-Feb-16 01:56N 51°56' E 004°12'0 0.0
2018-Feb-16 01:29N 51°56' E 004°12'0 0.0
2018-Feb-16 00:59N 51°56' E 004°12'0 0.0
2018-Feb-16 00:29N 51°56' E 004°12'0 0.0
2018-Feb-15 23:59N 51°56' E 004°12'0 0.0
2018-Feb-15 23:29N 51°56' E 004°12'0 0.0
2018-Feb-15 22:59N 51°56' E 004°12'0 0.0
2018-Feb-15 22:29N 51°56' E 004°12'0 0.0
2018-Feb-15 21:59N 51°56' E 004°12'0 0.0
2018-Feb-15 21:29N 51°56' E 004°12'0 0.0
2018-Feb-15 20:59N 51°56' E 004°12'0 0.0
2018-Feb-15 20:29N 51°56' E 004°12'0 0.0
2018-Feb-15 19:59N 51°56' E 004°12'0 0.0
2018-Feb-15 19:29N 51°56' E 004°12'0 0.0
2018-Feb-15 18:59N 51°56' E 004°12'0 0.0
2018-Feb-15 18:29N 51°56' E 004°12'0 0.0
2018-Feb-15 17:59N 51°56' E 004°12'0 0.0
2018-Feb-15 17:29N 51°56' E 004°12'0 0.0
2018-Feb-15 16:59N 51°56' E 004°12'0 0.0
2018-Feb-15 16:29N 51°56' E 004°12'0 0.0
2018-Feb-15 15:59N 51°56' E 004°12'0 0.0
2018-Feb-15 15:29N 51°56' E 004°12'0 0.0
2018-Feb-15 14:59N 51°56' E 004°12'0 0.0
2018-Feb-15 14:29N 51°56' E 004°12'0 0.0
2018-Feb-15 13:59N 51°56' E 004°12'0 0.0
2018-Feb-15 13:29N 51°56' E 004°12'0 0.0
2018-Feb-15 12:59N 51°56' E 004°12'0 0.0
2018-Feb-15 12:29N 51°56' E 004°12'0 0.0
2018-Feb-15 11:59N 51°56' E 004°12'0 0.0
2018-Feb-15 11:29N 51°56' E 004°12'0 0.0
2018-Feb-15 10:59N 51°56' E 004°12'0 0.0
2018-Feb-15 10:29N 51°56' E 004°12'0 0.0
2018-Feb-15 09:59N 51°56' E 004°12'0 0.0
2018-Feb-15 09:29N 51°56' E 004°12'0 0.0
2018-Feb-15 08:59N 51°56' E 004°12'0 0.0
2018-Feb-15 08:29N 51°56' E 004°12'0 0.0
2018-Feb-15 07:59N 51°56' E 004°12'0 0.0
2018-Feb-15 07:29N 51°56' E 004°12'0 0.0
2018-Feb-15 07:00N 51°56' E 004°12'2 3.0
2018-Feb-15 06:30N 51°57' E 004°10'4 7.7
2018-Feb-15 06:00N 51°59' E 004°05'1 2.8
2018-Feb-15 05:30N 51°60' E 004°03'612.0
2018-Feb-15 05:00N 51°57' E 004°11'611.1
2018-Feb-15 04:30N 51°54' E 004°19'2 3.0
2018-Feb-15 03:58N 51°54' E 004°22'0 0.0
2018-Feb-15 03:28N 51°54' E 004°22'0 0.0
2018-Feb-15 02:58N 51°54' E 004°22'0 0.0
2018-Feb-15 02:28N 51°54' E 004°22'  
2018-Feb-11 08:32N 51°54' E 004°22'0 0.2
2018-Feb-11 08:30N 51°54' E 004°22'0 0.3
2018-Feb-11 08:00N 51°54' E 004°21'3 6.6
2018-Feb-11 07:30N 51°54' E 004°16'5 9.7
2018-Feb-11 07:00N 51°57' E 004°10'510.2
2018-Feb-11 06:30N 51°60' E 004°02'612.1
2018-Feb-11 06:00N 51°60' E 003°52'510.5
2018-Feb-11 05:31N 51°59' E 003°44'2 4.0
2018-Feb-11 05:00N 52°01' E 003°43'612.4
2018-Feb-11 04:30N 52°06' E 003°37'611.3
2018-Feb-11 04:00N 52°12' E 003°35'3 7.0
2018-Feb-11 03:30N 52°15' E 003°39'1 1.8
2018-Feb-11 03:00N 52°15' E 003°37'1 2.0
2018-Feb-11 02:30N 52°14' E 003°36'1 2.1
2018-Feb-11 02:00N 52°14' E 003°34'1 2.2
2018-Feb-11 01:30N 52°13' E 003°33'4 8.7
2018-Feb-11 01:00N 52°09' E 003°30'3310.8
2018-Feb-10 21:54N 51°48' E 002°47'6 9.5
2018-Feb-10 21:17N 51°50' E 002°38'3 9.9
2018-Feb-10 20:56N 51°53' E 002°36'  
Track history (hours):
 
Tides and Currents Weather Stations Pressure Air Temp Water Temp Dewpoint Dewpoint Depression Visibility Wind Speed Wind Dir Waves Ship Positions

Scf Prime

Last reported at 2018-Feb-19 06:33 UTC. Time now 2018-Feb-20 01:53 UTC.
Position N 48°53' W 006°32'.

Length 228 m; draft 12.3 m.

Type: Ship. MMSI: 636015050.

Date/timePositionNaut miles runAvg speedWind from/ knotsBaromVisibWave heightAir tempDewpointWater temp
2018-Feb-19 06:33N 48°53' W 006°32'810.6
2018-Feb-19 05:47N 48°57' W 006°21'310.5
2018-Feb-19 05:30N 48°59' W 006°17'510.3
2018-Feb-19 05:00N 49°02' W 006°11'5311.6
2018-Feb-19 00:24N 49°29' W 005°00'37 9.1
2018-Feb-18 20:20N 49°42' W 004°07'1210.6
2018-Feb-18 19:10N 49°46' W 003°49'210.8
2018-Feb-18 19:00N 49°47' W 003°46'1011.1
2018-Feb-18 18:04N 49°50' W 003°31'211.6
2018-Feb-18 17:53N 49°51' W 003°28'512.0
2018-Feb-18 17:29N 49°53' W 003°21'612.7
2018-Feb-18 17:00N 49°55' W 003°12'713.6
2018-Feb-18 16:30N 49°57' W 003°02'714.4
2018-Feb-18 16:00N 49°60' W 002°52'815.1
2018-Feb-18 15:30N 50°02' W 002°41'1015.6
2018-Feb-18 14:51N 50°04' W 002°25'1215.5
2018-Feb-18 14:05N 50°08' W 002°07'215.0
2018-Feb-18 13:55N 50°08' W 002°04'614.6
2018-Feb-18 13:30N 50°10' W 001°55'713.7
2018-Feb-18 13:00N 50°12' W 001°44'612.7
2018-Feb-18 12:30N 50°14' W 001°35'611.8
2018-Feb-18 12:00N 50°15' W 001°26'510.8
2018-Feb-18 11:30N 50°17' W 001°18'510.1
2018-Feb-18 10:59N 50°18' W 001°10'31 9.8
2018-Feb-18 07:49N 50°27' W 000°23'411.8
2018-Feb-18 07:30N 50°28' W 000°17'612.7
2018-Feb-18 07:00N 50°29' W 000°08'713.3
2018-Feb-18 06:31N 50°31' E 000°02'713.9
2018-Feb-18 06:00N 50°33' E 000°13'714.0
2018-Feb-18 05:30N 50°35' E 000°23'714.1
2018-Feb-18 05:00N 50°37' E 000°34'713.6
2018-Feb-18 04:31N 50°40' E 000°43'713.2
2018-Feb-18 04:00N 50°44' E 000°52'612.6
2018-Feb-18 03:30N 50°47' E 001°00'612.0
2018-Feb-18 03:00N 50°51' E 001°08'611.4
2018-Feb-18 02:30N 50°54' E 001°16'510.2
2018-Feb-18 02:00N 50°58' E 001°22'510.0
2018-Feb-18 01:31N 51°01' E 001°26'5 9.6
2018-Feb-18 01:01N 51°05' E 001°31'510.4
2018-Feb-18 00:31N 51°09' E 001°37'611.3
2018-Feb-18 00:00N 51°12' E 001°44'612.0
2018-Feb-17 23:31N 51°17' E 001°49'713.6
2018-Feb-17 23:00N 51°23' E 001°56'714.6
2018-Feb-17 22:31N 51°29' E 002°02'714.6
2018-Feb-17 22:00N 51°34' E 002°10'714.8
2018-Feb-17 21:30N 51°40' E 002°18'714.8
2018-Feb-17 21:00N 51°45' E 002°26'714.5
2018-Feb-17 20:30N 51°51' E 002°34'714.0
2018-Feb-17 20:00N 51°56' E 002°42'1611.9
2018-Feb-17 18:42N 52°04' E 003°03'312.6
2018-Feb-17 18:30N 52°03' E 003°07'612.8
2018-Feb-17 18:00N 52°03' E 003°18'812.5
2018-Feb-17 17:23N 52°03' E 003°30'512.2
2018-Feb-17 16:59N 52°04' E 003°38'612.0
2018-Feb-17 16:30N 52°03' E 003°48'5 9.8
2018-Feb-17 16:00N 52°02' E 003°55'5 9.8
2018-Feb-17 15:30N 51°60' E 004°02'510.0
2018-Feb-17 15:00N 51°57' E 004°09'2 4.7
2018-Feb-17 14:30N 51°56' E 004°12'0 0.4
2018-Feb-17 13:59N 51°56' E 004°12'0 0.0
2018-Feb-17 13:29N 51°56' E 004°12'0 0.0
2018-Feb-17 12:59N 51°56' E 004°12'0 0.0
2018-Feb-17 12:29N 51°56' E 004°12'0 0.0
2018-Feb-17 11:59N 51°56' E 004°12'0 0.0
2018-Feb-17 11:29N 51°56' E 004°12'0 0.0
2018-Feb-17 10:59N 51°56' E 004°12'0 0.0
2018-Feb-17 10:29N 51°56' E 004°12'0 0.0
2018-Feb-17 09:59N 51°56' E 004°12'0 0.0
2018-Feb-17 09:29N 51°56' E 004°12'0 0.0
2018-Feb-17 08:59N 51°56' E 004°12'0 0.0
2018-Feb-17 08:29N 51°56' E 004°12'0 0.0
2018-Feb-17 07:59N 51°56' E 004°12'0 0.0
2018-Feb-17 07:29N 51°56' E 004°12'0 0.0
2018-Feb-17 06:59N 51°56' E 004°12'0 0.0
2018-Feb-17 06:29N 51°56' E 004°12'0 0.0
2018-Feb-17 05:59N 51°56' E 004°12'0 0.0
2018-Feb-17 05:29N 51°56' E 004°12'0 0.0
2018-Feb-17 04:56N 51°56' E 004°12'0 0.0
2018-Feb-17 04:29N 51°56' E 004°12'0 0.0
2018-Feb-17 03:59N 51°56' E 004°12'0 0.0
2018-Feb-17 03:29N 51°56' E 004°12'0 0.0
2018-Feb-17 02:59N 51°56' E 004°12'0 0.0
2018-Feb-17 02:29N 51°56' E 004°12'0 0.0
2018-Feb-17 01:59N 51°56' E 004°12'0 0.0
2018-Feb-17 01:29N 51°56' E 004°12'0 0.0
2018-Feb-17 00:59N 51°56' E 004°12'0 0.0
2018-Feb-17 00:29N 51°56' E 004°12'0 0.0
2018-Feb-16 23:59N 51°56' E 004°12'0 0.0
2018-Feb-16 23:29N 51°56' E 004°12'0 0.0
2018-Feb-16 22:59N 51°56' E 004°12'0 0.0
2018-Feb-16 22:29N 51°56' E 004°12'0 0.0
2018-Feb-16 21:59N 51°56' E 004°12'0 0.0
2018-Feb-16 21:29N 51°56' E 004°12'0 0.0
2018-Feb-16 20:59N 51°56' E 004°12'0 0.0
2018-Feb-16 20:29N 51°56' E 004°12'0 0.0
2018-Feb-16 19:59N 51°56' E 004°12'0 0.0
2018-Feb-16 19:29N 51°56' E 004°12'0 0.0
2018-Feb-16 18:59N 51°56' E 004°12'0 0.0
2018-Feb-16 18:29N 51°56' E 004°12'0 0.0
2018-Feb-16 17:59N 51°56' E 004°12'0 0.0
2018-Feb-16 17:29N 51°56' E 004°12'0 0.0
2018-Feb-16 16:59N 51°56' E 004°12'0 0.0
2018-Feb-16 16:29N 51°56' E 004°12'0 0.0
2018-Feb-16 15:59N 51°56' E 004°12'0 0.0
2018-Feb-16 15:29N 51°56' E 004°12'0 0.0
2018-Feb-16 14:59N 51°56' E 004°12'0 0.0
2018-Feb-16 14:29N 51°56' E 004°12'0 0.0
2018-Feb-16 13:59N 51°56' E 004°12'0 0.0
2018-Feb-16 13:29N 51°56' E 004°12'0 0.0
2018-Feb-16 12:59N 51°56' E 004°12'0 0.0
2018-Feb-16 12:29N 51°56' E 004°12'0 0.0
2018-Feb-16 11:59N 51°56' E 004°12'0 0.0
2018-Feb-16 11:29N 51°56' E 004°12'0 0.0
2018-Feb-16 10:59N 51°56' E 004°12'0 0.0
2018-Feb-16 10:29N 51°56' E 004°12'0 0.0
2018-Feb-16 09:59N 51°56' E 004°12'0 0.0
2018-Feb-16 09:29N 51°56' E 004°12'0 0.0
2018-Feb-16 08:59N 51°56' E 004°12'0 0.0
2018-Feb-16 08:29N 51°56' E 004°12'0 0.0
2018-Feb-16 07:59N 51°56' E 004°12'0 0.0
2018-Feb-16 07:29N 51°56' E 004°12'0 0.0
2018-Feb-16 06:59N 51°56' E 004°12'0 0.0
2018-Feb-16 06:29N 51°56' E 004°12'0 0.0
2018-Feb-16 05:59N 51°56' E 004°12'0 0.0
2018-Feb-16 05:29N 51°56' E 004°12'0 0.0
2018-Feb-16 04:59N 51°56' E 004°12'0 0.0
2018-Feb-16 04:29N 51°56' E 004°12'0 0.0
2018-Feb-16 03:59N 51°56' E 004°12'0 0.0
2018-Feb-16 03:29N 51°56' E 004°12'0 0.0
2018-Feb-16 02:59N 51°56' E 004°12'0 0.0
2018-Feb-16 02:29N 51°56' E 004°12'0 0.0
2018-Feb-16 01:56N 51°56' E 004°12'0 0.0
2018-Feb-16 01:29N 51°56' E 004°12'0 0.0
2018-Feb-16 00:59N 51°56' E 004°12'0 0.0
2018-Feb-16 00:29N 51°56' E 004°12'0 0.0
2018-Feb-15 23:59N 51°56' E 004°12'0 0.0
2018-Feb-15 23:29N 51°56' E 004°12'0 0.0
2018-Feb-15 22:59N 51°56' E 004°12'0 0.0
2018-Feb-15 22:29N 51°56' E 004°12'0 0.0
2018-Feb-15 21:59N 51°56' E 004°12'0 0.0
2018-Feb-15 21:29N 51°56' E 004°12'0 0.0
2018-Feb-15 20:59N 51°56' E 004°12'0 0.0
2018-Feb-15 20:29N 51°56' E 004°12'0 0.0
2018-Feb-15 19:59N 51°56' E 004°12'0 0.0
2018-Feb-15 19:29N 51°56' E 004°12'0 0.0
2018-Feb-15 18:59N 51°56' E 004°12'0 0.0
2018-Feb-15 18:29N 51°56' E 004°12'0 0.0
2018-Feb-15 17:59N 51°56' E 004°12'0 0.0
2018-Feb-15 17:29N 51°56' E 004°12'0 0.0
2018-Feb-15 16:59N 51°56' E 004°12'0 0.0
2018-Feb-15 16:29N 51°56' E 004°12'0 0.0
2018-Feb-15 15:59N 51°56' E 004°12'0 0.0
2018-Feb-15 15:29N 51°56' E 004°12'0 0.0
2018-Feb-15 14:59N 51°56' E 004°12'0 0.0
2018-Feb-15 14:29N 51°56' E 004°12'0 0.0
2018-Feb-15 13:59N 51°56' E 004°12'0 0.0
2018-Feb-15 13:29N 51°56' E 004°12'0 0.0
2018-Feb-15 12:59N 51°56' E 004°12'0 0.0
2018-Feb-15 12:29N 51°56' E 004°12'0 0.0
2018-Feb-15 11:59N 51°56' E 004°12'0 0.0
2018-Feb-15 11:29N 51°56' E 004°12'0 0.0
2018-Feb-15 10:59N 51°56' E 004°12'0 0.0
2018-Feb-15 10:29N 51°56' E 004°12'0 0.0
2018-Feb-15 09:59N 51°56' E 004°12'0 0.0
2018-Feb-15 09:29N 51°56' E 004°12'0 0.0
2018-Feb-15 08:59N 51°56' E 004°12'0 0.0
2018-Feb-15 08:29N 51°56' E 004°12'0 0.0
2018-Feb-15 07:59N 51°56' E 004°12'0 0.0
2018-Feb-15 07:29N 51°56' E 004°12'0 0.0
2018-Feb-15 07:00N 51°56' E 004°12'2 3.0
2018-Feb-15 06:30N 51°57' E 004°10'4 7.7
2018-Feb-15 06:00N 51°59' E 004°05'1 2.8
2018-Feb-15 05:30N 51°60' E 004°03'612.0
2018-Feb-15 05:00N 51°57' E 004°11'611.1
2018-Feb-15 04:30N 51°54' E 004°19'2 3.0
2018-Feb-15 03:58N 51°54' E 004°22'0 0.0
2018-Feb-15 03:28N 51°54' E 004°22'0 0.0
2018-Feb-15 02:58N 51°54' E 004°22'0 0.0
2018-Feb-15 02:28N 51°54' E 004°22'  
2018-Feb-11 08:32N 51°54' E 004°22'0 0.2
2018-Feb-11 08:30N 51°54' E 004°22'0 0.3
2018-Feb-11 08:00N 51°54' E 004°21'3 6.6
2018-Feb-11 07:30N 51°54' E 004°16'5 9.7
2018-Feb-11 07:00N 51°57' E 004°10'510.2
2018-Feb-11 06:30N 51°60' E 004°02'612.1
2018-Feb-11 06:00N 51°60' E 003°52'510.5
2018-Feb-11 05:31N 51°59' E 003°44'2 4.0
2018-Feb-11 05:00N 52°01' E 003°43'612.4
2018-Feb-11 04:30N 52°06' E 003°37'611.3
2018-Feb-11 04:00N 52°12' E 003°35'3 7.0
2018-Feb-11 03:30N 52°15' E 003°39'1 1.8
2018-Feb-11 03:00N 52°15' E 003°37'1 2.0
2018-Feb-11 02:30N 52°14' E 003°36'1 2.1
2018-Feb-11 02:00N 52°14' E 003°34'1 2.2
2018-Feb-11 01:30N 52°13' E 003°33'4 8.7
2018-Feb-11 01:00N 52°09' E 003°30'3310.8
2018-Feb-10 21:54N 51°48' E 002°47'6 9.5
2018-Feb-10 21:17N 51°50' E 002°38'3 9.9
2018-Feb-10 20:56N 51°53' E 002°36'  

Dump ship's entire track history